sensor_id;sensor_type;location;lat;lon;timestamp;pressure;altitude;pressure_sealevel;temperature;humidity
55113;BME280;41006;50.920;3.456;2023-05-19T00:00:10;102432.41;;;10.15;100.00
55113;BME280;41006;50.920;3.456;2023-05-19T00:00:43;102436.94;;;10.23;100.00
55113;BME280;41006;50.920;3.456;2023-05-19T00:01:19;102439.59;;;10.26;100.00
55113;BME280;41006;50.920;3.456;2023-05-19T00:01:50;102439.59;;;10.23;100.00
55113;BME280;41006;50.920;3.456;2023-05-19T00:02:21;102440.38;;;10.17;100.00
55113;BME280;41006;50.920;3.456;2023-05-19T00:02:54;102441.28;;;10.19;100.00
55113;BME280;41006;50.920;3.456;2023-05-19T00:03:29;102448.31;;;10.15;100.00
55113;BME280;41006;50.920;3.456;2023-05-19T00:04:00;102443.09;;;10.20;100.00
55113;BME280;41006;50.920;3.456;2023-05-19T00:04:34;102443.03;;;10.17;100.00
55113;BME280;41006;50.920;3.456;2023-05-19T00:05:15;102447.53;;;10.21;100.00
55113;BME280;41006;50.920;3.456;2023-05-19T00:05:47;102447.56;;;10.24;100.00
55113;BME280;41006;50.920;3.456;2023-05-19T00:06:28;102444.84;;;10.19;100.00
55113;BME280;41006;50.920;3.456;2023-05-19T00:07:04;102443.03;;;10.17;100.00
55113;BME280;41006;50.920;3.456;2023-05-19T00:07:37;102449.22;;;10.16;100.00
55113;BME280;41006;50.920;3.456;2023-05-19T00:08:11;102457.16;;;10.13;100.00
55113;BME280;41006;50.920;3.456;2023-05-19T00:08:45;102448.28;;;10.12;100.00
55113;BME280;41006;50.920;3.456;2023-05-19T00:09:16;102448.19;;;10.06;100.00
55113;BME280;41006;50.920;3.456;2023-05-19T00:09:52;102450.13;;;10.16;100.00
55113;BME280;41006;50.920;3.456;2023-05-19T00:10:27;102444.81;;;10.16;100.00
55113;BME280;41006;50.920;3.456;2023-05-19T00:11:03;102451.88;;;10.14;100.00
55113;BME280;41006;50.920;3.456;2023-05-19T00:11:37;102448.28;;;10.12;100.00
55113;BME280;41006;50.920;3.456;2023-05-19T00:12:09;102449.22;;;10.16;100.00
55113;BME280;41006;50.920;3.456;2023-05-19T00:12:40;102451.81;;;10.11;100.00
55113;BME280;41006;50.920;3.456;2023-05-19T00:13:14;102449.22;;;10.14;100.00
55113;BME280;41006;50.920;3.456;2023-05-19T00:13:45;102454.47;;;10.11;100.00
55113;BME280;41006;50.920;3.456;2023-05-19T00:14:18;102460.72;;;10.16;100.00
55113;BME280;41006;50.920;3.456;2023-05-19T00:14:52;102458.06;;;10.16;100.00
55113;BME280;41006;50.920;3.456;2023-05-19T00:15:25;102452.75;;;10.15;100.00
55113;BME280;41006;50.920;3.456;2023-05-19T00:15:58;102456.22;;;10.11;100.00
55113;BME280;41006;50.920;3.456;2023-05-19T00:16:29;102451.75;;;10.08;100.00
55113;BME280;41006;50.920;3.456;2023-05-19T00:17:00;102450.84;;;10.06;100.00
55113;BME280;41006;50.920;3.456;2023-05-19T00:17:35;102447.28;;;10.03;100.00
55113;BME280;41006;50.920;3.456;2023-05-19T00:18:09;102458.88;;;10.12;100.00
55113;BME280;41006;50.920;3.456;2023-05-19T00:18:45;102457.06;;;10.08;100.00
55113;BME280;41006;50.920;3.456;2023-05-19T00:19:17;102456.22;;;10.09;100.00
55113;BME280;41006;50.920;3.456;2023-05-19T00:19:52;102456.13;;;10.05;100.00
55113;BME280;41006;50.920;3.456;2023-05-19T00:20:26;102460.53;;;10.04;100.00
55113;BME280;41006;50.920;3.456;2023-05-19T00:20:56;102452.56;;;10.04;100.00
55113;BME280;41006;50.920;3.456;2023-05-19T00:21:30;102456.03;;;9.98;100.00
55113;BME280;41006;50.920;3.456;2023-05-19T00:22:03;102454.19;;;9.91;100.00
55113;BME280;41006;50.920;3.456;2023-05-19T00:22:35;102449.69;;;9.89;100.00
55113;BME280;41006;50.920;3.456;2023-05-19T00:23:09;102444.44;;;9.92;100.00
55113;BME280;41006;50.920;3.456;2023-05-19T00:23:42;102452.31;;;9.87;100.00
55113;BME280;41006;50.920;3.456;2023-05-19T00:24:12;102454.00;;;9.80;100.00
55113;BME280;41006;50.920;3.456;2023-05-19T00:24:43;102444.25;;;9.78;100.00
55113;BME280;41006;50.920;3.456;2023-05-19T00:25:13;102451.41;;;9.84;100.00
55113;BME280;41006;50.920;3.456;2023-05-19T00:25:47;102447.06;;;9.90;100.00
55113;BME280;41006;50.920;3.456;2023-05-19T00:26:17;102451.44;;;9.87;100.00
55113;BME280;41006;50.920;3.456;2023-05-19T00:26:50;102442.53;;;9.81;100.00
55113;BME280;41006;50.920;3.456;2023-05-19T00:27:21;102446.97;;;9.82;100.00
55113;BME280;41006;50.920;3.456;2023-05-19T00:27:51;102449.69;;;9.89;100.00
55113;BME280;41006;50.920;3.456;2023-05-19T00:28:26;102451.50;;;9.90;100.00
55113;BME280;41006;50.920;3.456;2023-05-19T00:28:57;102444.34;;;9.86;100.00
55113;BME280;41006;50.920;3.456;2023-05-19T00:29:28;102446.13;;;9.85;100.00
55113;BME280;41006;50.920;3.456;2023-05-19T00:30:00;102454.94;;;9.86;100.00
55113;BME280;41006;50.920;3.456;2023-05-19T00:30:31;102450.47;;;9.80;100.00
55113;BME280;41006;50.920;3.456;2023-05-19T00:31:03;102455.91;;;9.91;100.00
55113;BME280;41006;50.920;3.456;2023-05-19T00:31:36;102453.19;;;9.85;100.00
55113;BME280;41006;50.920;3.456;2023-05-19T00:32:09;102452.31;;;9.86;100.00
55113;BME280;41006;50.920;3.456;2023-05-19T00:32:44;102446.19;;;9.90;100.00
55113;BME280;41006;50.920;3.456;2023-05-19T00:33:14;102454.06;;;9.85;100.00
55113;BME280;41006;50.920;3.456;2023-05-19T00:33:45;102451.44;;;9.87;100.00
55113;BME280;41006;50.920;3.456;2023-05-19T00:34:17;102449.63;;;9.82;100.00
55113;BME280;41006;50.920;3.456;2023-05-19T00:34:48;102447.69;;;9.74;100.00
55113;BME280;41006;50.920;3.456;2023-05-19T00:35:23;102452.06;;;9.70;100.00
55113;BME280;41006;50.920;3.456;2023-05-19T00:35:53;102449.47;;;9.73;100.00
55113;BME280;41006;50.920;3.456;2023-05-19T00:36:24;102450.38;;;9.75;100.00
55113;BME280;41006;50.920;3.456;2023-05-19T00:36:59;102447.72;;;9.75;100.00
55113;BME280;41006;50.920;3.456;2023-05-19T00:37:32;102448.75;;;9.84;100.00
55113;BME280;41006;50.920;3.456;2023-05-19T00:38:04;102448.69;;;9.80;100.00
55113;BME280;41006;50.920;3.456;2023-05-19T00:38:38;102444.34;;;9.82;100.00
55113;BME280;41006;50.920;3.456;2023-05-19T00:39:12;102446.03;;;9.80;100.00
55113;BME280;41006;50.920;3.456;2023-05-19T00:39:43;102437.28;;;9.85;100.00
55113;BME280;41006;50.920;3.456;2023-05-19T00:40:13;102438.09;;;9.80;100.00
55113;BME280;41006;50.920;3.456;2023-05-19T00:40:44;102439.88;;;9.81;100.00
55113;BME280;41006;50.920;3.456;2023-05-19T00:41:15;102449.56;;;9.79;100.00
55113;BME280;41006;50.920;3.456;2023-05-19T00:41:48;102435.38;;;9.74;100.00
55113;BME280;41006;50.920;3.456;2023-05-19T00:42:20;102433.69;;;9.79;100.00
55113;BME280;41006;50.920;3.456;2023-05-19T00:42:51;102433.88;;;9.93;100.00
55113;BME280;41006;50.920;3.456;2023-05-19T00:43:24;102440.84;;;9.87;100.00
55113;BME280;41006;50.920;3.456;2023-05-19T00:43:55;102428.41;;;9.84;100.00
55113;BME280;41006;50.920;3.456;2023-05-19T00:44:25;102430.16;;;9.82;100.00
55113;BME280;41006;50.920;3.456;2023-05-19T00:44:56;102426.63;;;9.81;100.00
55113;BME280;41006;50.920;3.456;2023-05-19T00:45:28;102429.19;;;9.75;100.00
55113;BME280;41006;50.920;3.456;2023-05-19T00:46:01;102430.91;;;9.72;100.00
55113;BME280;41006;50.920;3.456;2023-05-19T00:46:34;102431.69;;;9.66;100.00
55113;BME280;41006;50.920;3.456;2023-05-19T00:47:05;102432.72;;;9.74;100.00
55113;BME280;41006;50.920;3.456;2023-05-19T00:47:37;102429.09;;;9.71;100.00
55113;BME280;41006;50.920;3.456;2023-05-19T00:48:10;102433.53;;;9.70;100.00
55113;BME280;41006;50.920;3.456;2023-05-19T00:48:43;102430.81;;;9.67;100.00
55113;BME280;41006;50.920;3.456;2023-05-19T00:49:18;102429.94;;;9.67;100.00
55113;BME280;41006;50.920;3.456;2023-05-19T00:49:51;102432.44;;;9.59;100.00
55113;BME280;41006;50.920;3.456;2023-05-19T00:50:22;102429.00;;;9.63;100.00
55113;BME280;41006;50.920;3.456;2023-05-19T00:50:55;102429.97;;;9.68;100.00
55113;BME280;41006;50.920;3.456;2023-05-19T00:51:31;102430.88;;;9.70;100.00
55113;BME280;41006;50.920;3.456;2023-05-19T00:52:04;102425.44;;;9.61;100.00
55113;BME280;41006;50.920;3.456;2023-05-19T00:52:35;102434.28;;;9.61;100.00
55113;BME280;41006;50.920;3.456;2023-05-19T00:53:06;102428.16;;;9.67;100.00
55113;BME280;41006;50.920;3.456;2023-05-19T00:53:36;102431.78;;;9.72;100.00
55113;BME280;41006;50.920;3.456;2023-05-19T00:54:07;102428.22;;;9.70;100.00
55113;BME280;41006;50.920;3.456;2023-05-19T00:54:37;102433.56;;;9.73;100.00
55113;BME280;41006;50.920;3.456;2023-05-19T00:55:08;102425.50;;;9.67;100.00
55113;BME280;41006;50.920;3.456;2023-05-19T00:55:39;102427.09;;;9.56;100.00
55113;BME280;41006;50.920;3.456;2023-05-19T00:56:12;102425.41;;;9.59;100.00
55113;BME280;41006;50.920;3.456;2023-05-19T00:56:44;102421.81;;;9.57;100.00
55113;BME280;41006;50.920;3.456;2023-05-19T00:57:15;102423.66;;;9.61;100.00
55113;BME280;41006;50.920;3.456;2023-05-19T00:57:49;102421.84;;;9.59;100.00
55113;BME280;41006;50.920;3.456;2023-05-19T00:58:19;102427.09;;;9.54;100.00
55113;BME280;41006;50.920;3.456;2023-05-19T00:58:50;102424.34;;;9.48;100.00
55113;BME280;41006;50.920;3.456;2023-05-19T00:59:21;102421.81;;;9.57;100.00
55113;BME280;41006;50.920;3.456;2023-05-19T00:59:56;102413.81;;;9.53;100.00
55113;BME280;41006;50.920;3.456;2023-05-19T01:00:31;102412.19;;;9.61;100.00
55113;BME280;41006;50.920;3.456;2023-05-19T01:01:02;102415.81;;;9.66;100.00
55113;BME280;41006;50.920;3.456;2023-05-19T01:01:33;102420.19;;;9.66;100.00
55113;BME280;41006;50.920;3.456;2023-05-19T01:02:04;102420.13;;;9.62;100.00
55113;BME280;41006;50.920;3.456;2023-05-19T01:02:37;102415.06;;;9.76;100.00
55113;BME280;41006;50.920;3.456;2023-05-19T01:03:10;102420.44;;;9.81;100.00
55113;BME280;41006;50.920;3.456;2023-05-19T01:03:44;102414.19;;;9.77;100.00
55113;BME280;41006;50.920;3.456;2023-05-19T01:04:20;102412.34;;;9.72;100.00
55113;BME280;41006;50.920;3.456;2023-05-19T01:04:51;102414.22;;;9.80;100.00
55113;BME280;41006;50.920;3.456;2023-05-19T01:05:22;102415.16;;;9.82;100.00
55113;BME280;41006;50.920;3.456;2023-05-19T01:05:55;102416.13;;;9.88;100.00
55113;BME280;41006;50.920;3.456;2023-05-19T01:06:27;102416.97;;;9.87;100.00
55113;BME280;41006;50.920;3.456;2023-05-19T01:07:01;102414.19;;;9.77;100.00
55113;BME280;41006;50.920;3.456;2023-05-19T01:07:34;102411.47;;;9.73;100.00
55113;BME280;41006;50.920;3.456;2023-05-19T01:08:06;102414.13;;;9.73;100.00
55113;BME280;41006;50.920;3.456;2023-05-19T01:08:37;102407.84;;;9.66;100.00
55113;BME280;41006;50.920;3.456;2023-05-19T01:09:08;102413.13;;;9.65;100.00
55113;BME280;41006;50.920;3.456;2023-05-19T01:09:41;102412.91;;;9.52;100.00
55113;BME280;41006;50.920;3.456;2023-05-19T01:10:14;102409.28;;;9.45;100.00
55113;BME280;41006;50.920;3.456;2023-05-19T01:10:44;102404.84;;;9.44;100.00
55113;BME280;41006;50.920;3.456;2023-05-19T01:11:15;102406.63;;;9.45;100.00
55113;BME280;41006;50.920;3.456;2023-05-19T01:11:45;102403.06;;;9.43;100.00
55113;BME280;41006;50.920;3.456;2023-05-19T01:12:17;102404.84;;;9.44;100.00
55113;BME280;41006;50.920;3.456;2023-05-19T01:12:48;102403.06;;;9.43;100.00
55113;BME280;41006;50.920;3.456;2023-05-19T01:13:18;102400.44;;;9.45;100.00
55113;BME280;41006;50.920;3.456;2023-05-19T01:13:51;102398.66;;;9.44;100.00
55113;BME280;41006;50.920;3.456;2023-05-19T01:14:24;102396.81;;;9.38;100.00
55113;BME280;41006;50.920;3.456;2023-05-19T01:14:54;102400.41;;;9.43;100.00
55113;BME280;41006;50.920;3.456;2023-05-19T01:15:30;102396.06;;;9.49;100.00
55113;BME280;41006;50.920;3.456;2023-05-19T01:16:12;102399.50;;;9.41;100.00
55113;BME280;41006;50.920;3.456;2023-05-19T01:17:29;102403.06;;;9.43;100.00
55113;BME280;41006;50.920;3.456;2023-05-19T01:18:11;102398.56;;;9.38;100.00
55113;BME280;41006;50.920;3.456;2023-05-19T01:18:52;102399.34;;;9.32;100.00
55113;BME280;41006;50.920;3.456;2023-05-19T01:19:49;102401.03;;;9.27;100.00
55113;BME280;41006;50.920;3.456;2023-05-19T01:20:38;102389.53;;;9.26;100.00
55113;BME280;41006;50.920;3.456;2023-05-19T01:29:27;102395.47;;;9.12;100.00
55113;BME280;41006;50.920;3.456;2023-05-19T01:30:43;102389.31;;;9.13;100.00
55113;BME280;41006;50.920;3.456;2023-05-19T01:31:20;102397.25;;;9.11;100.00
55113;BME280;41006;50.920;3.456;2023-05-19T01:31:54;102399.03;;;9.14;100.00
55113;BME280;41006;50.920;3.456;2023-05-19T01:32:27;102390.19;;;9.12;100.00
55113;BME280;41006;50.920;3.456;2023-05-19T01:33:04;102391.97;;;9.13;100.00
55113;BME280;41006;50.920;3.456;2023-05-19T01:33:38;102395.41;;;9.08;100.00
55113;BME280;41006;50.920;3.456;2023-05-19T01:34:11;102395.41;;;9.08;100.00
55113;BME280;41006;50.920;3.456;2023-05-19T01:34:45;102395.41;;;9.08;100.00
55113;BME280;41006;50.920;3.456;2023-05-19T01:35:22;102395.38;;;9.07;100.00
55113;BME280;41006;50.920;3.456;2023-05-19T01:35:58;102393.53;;;9.01;100.00
55113;BME280;41006;50.920;3.456;2023-05-19T01:36:32;102396.25;;;9.06;100.00
55113;BME280;41006;50.920;3.456;2023-05-19T01:37:06;102388.41;;;9.12;100.00
55113;BME280;41006;50.920;3.456;2023-05-19T01:37:40;102394.50;;;9.06;100.00
55113;BME280;41006;50.920;3.456;2023-05-19T01:38:11;102395.53;;;9.15;100.00
55113;BME280;41006;50.920;3.456;2023-05-19T01:38:44;102395.47;;;9.12;100.00
55113;BME280;41006;50.920;3.456;2023-05-19T01:39:15;102395.41;;;9.08;100.00
55113;BME280;41006;50.920;3.456;2023-05-19T01:39:49;102384.81;;;9.08;100.00
55113;BME280;41006;50.920;3.456;2023-05-19T01:40:22;102385.84;;;9.17;100.00
55113;BME280;41006;50.920;3.456;2023-05-19T01:40:56;102385.88;;;9.18;100.00
55113;BME280;41006;50.920;3.456;2023-05-19T01:41:29;102383.19;;;9.17;100.00
55113;BME280;41006;50.920;3.456;2023-05-19T01:42:06;102389.31;;;9.13;100.00
55113;BME280;41006;50.920;3.456;2023-05-19T01:42:39;102389.28;;;9.11;100.00
55113;BME280;41006;50.920;3.456;2023-05-19T01:43:19;102387.59;;;9.15;100.00
55113;BME280;41006;50.920;3.456;2023-05-19T01:43:50;102391.16;;;9.18;100.00
55113;BME280;41006;50.920;3.456;2023-05-19T01:44:23;102388.47;;;9.15;100.00
55113;BME280;41006;50.920;3.456;2023-05-19T01:44:54;102381.47;;;9.19;100.00
55113;BME280;41006;50.920;3.456;2023-05-19T01:45:27;102391.16;;;9.18;100.00
55113;BME280;41006;50.920;3.456;2023-05-19T01:46:01;102387.63;;;9.16;100.00
55113;BME280;41006;50.920;3.456;2023-05-19T01:46:35;102383.13;;;9.14;100.00
55113;BME280;41006;50.920;3.456;2023-05-19T01:47:07;102385.78;;;9.14;100.00
55113;BME280;41006;50.920;3.456;2023-05-19T01:47:46;102386.66;;;9.14;100.00
55113;BME280;41006;50.920;3.456;2023-05-19T01:48:20;102386.69;;;9.13;100.00
55113;BME280;41006;50.920;3.456;2023-05-19T01:48:53;102383.16;;;9.15;100.00
55113;BME280;41006;50.920;3.456;2023-05-19T01:49:28;102387.56;;;9.13;100.00
55113;BME280;41006;50.920;3.456;2023-05-19T01:49:59;102390.34;;;9.21;100.00
55113;BME280;41006;50.920;3.456;2023-05-19T01:50:30;102385.84;;;9.17;100.00
55113;BME280;41006;50.920;3.456;2023-05-19T01:51:04;102386.69;;;9.16;100.00
55113;BME280;41006;50.920;3.456;2023-05-19T01:51:34;102391.16;;;9.17;100.00
55113;BME280;41006;50.920;3.456;2023-05-19T01:52:05;102386.69;;;9.13;100.00
55113;BME280;41006;50.920;3.456;2023-05-19T01:52:35;102388.38;;;9.11;100.00
55113;BME280;41006;50.920;3.456;2023-05-19T01:53:10;102386.69;;;9.13;100.00
55113;BME280;41006;50.920;3.456;2023-05-19T01:53:43;102386.69;;;9.16;100.00
55113;BME280;41006;50.920;3.456;2023-05-19T01:54:16;102390.19;;;9.13;100.00
55113;BME280;41006;50.920;3.456;2023-05-19T01:54:48;102384.91;;;9.13;100.00
55113;BME280;41006;50.920;3.456;2023-05-19T01:55:21;102391.06;;;9.12;100.00
55113;BME280;41006;50.920;3.456;2023-05-19T01:55:56;102383.13;;;9.14;100.00
55113;BME280;41006;50.920;3.456;2023-05-19T01:56:47;102381.34;;;9.11;100.00
55113;BME280;41006;50.920;3.456;2023-05-19T01:58:20;102392.09;;;9.22;100.00
55113;BME280;41006;50.920;3.456;2023-05-19T01:59:01;102382.41;;;9.21;100.00
55113;BME280;41006;50.920;3.456;2023-05-19T01:59:59;102385.91;;;9.20;100.00
55113;BME280;41006;50.920;3.456;2023-05-19T02:01:39;102391.13;;;9.15;100.00
55113;BME280;41006;50.920;3.456;2023-05-19T02:02:28;102389.41;;;9.19;100.00
55113;BME280;41006;50.920;3.456;2023-05-19T02:04:47;102389.34;;;9.16;100.00
55113;BME280;41006;50.920;3.456;2023-05-19T02:07:38;102391.16;;;9.17;100.00
55113;BME280;41006;50.920;3.456;2023-05-19T02:08:41;102391.25;;;9.23;100.00
55113;BME280;41006;50.920;3.456;2023-05-19T02:09:52;102389.31;;;9.14;100.00
55113;BME280;41006;50.920;3.456;2023-05-19T02:10:27;102391.91;;;9.10;100.00
55113;BME280;41006;50.920;3.456;2023-05-19T02:11:06;102390.09;;;9.07;100.00
55113;BME280;41006;50.920;3.456;2023-05-19T02:12:26;102389.00;;;8.96;100.00
55113;BME280;41006;50.920;3.456;2023-05-19T02:13:00;102396.03;;;8.94;100.00
55113;BME280;41006;50.920;3.456;2023-05-19T02:13:42;102385.50;;;8.97;100.00
55113;BME280;41006;50.920;3.456;2023-05-19T02:14:35;102384.69;;;9.02;100.00
55113;BME280;41006;50.920;3.456;2023-05-19T02:15:21;102390.84;;;9.00;100.00
55113;BME280;41006;50.920;3.456;2023-05-19T02:16:02;102389.97;;;8.99;100.00
55113;BME280;41006;50.920;3.456;2023-05-19T02:16:35;102387.38;;;9.04;100.00
55113;BME280;41006;50.920;3.456;2023-05-19T02:17:09;102393.59;;;9.04;100.00
55113;BME280;41006;50.920;3.456;2023-05-19T02:17:43;102388.16;;;8.97;100.00
55113;BME280;41006;50.920;3.456;2023-05-19T02:18:19;102388.06;;;8.92;100.00
55113;BME280;41006;50.920;3.456;2023-05-19T02:18:50;102390.88;;;9.01;100.00
55113;BME280;41006;50.920;3.456;2023-05-19T02:19:25;102389.06;;;8.99;100.00
55113;BME280;41006;50.920;3.456;2023-05-19T02:20:02;102390.84;;;9.00;100.00
55113;BME280;41006;50.920;3.456;2023-05-19T02:20:33;102388.16;;;8.97;100.00
55113;BME280;41006;50.920;3.456;2023-05-19T02:21:06;102387.31;;;9.01;100.00
55113;BME280;41006;50.920;3.456;2023-05-19T02:21:42;102388.06;;;8.92;100.00
55113;BME280;41006;50.920;3.456;2023-05-19T02:22:15;102387.19;;;8.93;100.00
55113;BME280;41006;50.920;3.456;2023-05-19T02:22:47;102387.03;;;8.84;100.00
55113;BME280;41006;50.920;3.456;2023-05-19T02:23:20;102384.38;;;8.84;100.00
55113;BME280;41006;50.920;3.456;2023-05-19T02:23:52;102385.19;;;8.80;100.00
55113;BME280;41006;50.920;3.456;2023-05-19T02:24:23;102382.50;;;8.77;100.00
55113;BME280;41006;50.920;3.456;2023-05-19T02:24:57;102388.63;;;8.76;100.00
55113;BME280;41006;50.920;3.456;2023-05-19T02:25:29;102387.72;;;8.74;100.00
55113;BME280;41006;50.920;3.456;2023-05-19T02:26:00;102385.03;;;8.72;100.00
55113;BME280;41006;50.920;3.456;2023-05-19T02:26:31;102384.94;;;8.67;100.00
55113;BME280;41006;50.920;3.456;2023-05-19T02:27:02;102387.56;;;8.64;100.00
55113;BME280;41006;50.920;3.456;2023-05-19T02:27:35;102385.81;;;8.66;100.00
55113;BME280;41006;50.920;3.456;2023-05-19T02:28:06;102386.72;;;8.67;100.00
55113;BME280;41006;50.920;3.456;2023-05-19T02:28:36;102382.38;;;8.70;100.00
55113;BME280;41006;50.920;3.456;2023-05-19T02:29:06;102386.94;;;8.78;100.00
55113;BME280;41006;50.920;3.456;2023-05-19T02:29:39;102385.91;;;8.73;100.00
55113;BME280;41006;50.920;3.456;2023-05-19T02:30:11;102384.09;;;8.68;100.00
55113;BME280;41006;50.920;3.456;2023-05-19T02:30:44;102389.56;;;8.78;100.00
55113;BME280;41006;50.920;3.456;2023-05-19T02:31:17;102387.78;;;8.77;100.00
55113;BME280;41006;50.920;3.456;2023-05-19T02:31:47;102382.50;;;8.77;100.00
55113;BME280;41006;50.920;3.456;2023-05-19T02:32:19;102384.31;;;8.81;100.00
55113;BME280;41006;50.920;3.456;2023-05-19T02:32:55;102382.53;;;8.78;100.00
55113;BME280;41006;50.920;3.456;2023-05-19T02:33:27;102381.69;;;8.82;100.00
55113;BME280;41006;50.920;3.456;2023-05-19T02:34:00;102385.22;;;8.81;100.00
55113;BME280;41006;50.920;3.456;2023-05-19T02:34:30;102385.19;;;8.80;100.00
55113;BME280;41006;50.920;3.456;2023-05-19T02:35:04;102380.75;;;8.79;100.00
55113;BME280;41006;50.920;3.456;2023-05-19T02:35:37;102386.00;;;8.76;100.00
55113;BME280;41006;50.920;3.456;2023-05-19T02:36:07;102384.22;;;8.75;100.00
55113;BME280;41006;50.920;3.456;2023-05-19T02:36:42;102380.50;;;8.65;100.00
55113;BME280;41006;50.920;3.456;2023-05-19T02:37:16;102383.13;;;8.63;100.00
55113;BME280;41006;50.920;3.456;2023-05-19T02:37:48;102385.69;;;8.60;100.00
55113;BME280;41006;50.920;3.456;2023-05-19T02:38:21;102386.75;;;8.68;100.00
55113;BME280;41006;50.920;3.456;2023-05-19T02:38:52;102389.31;;;8.65;100.00
55113;BME280;41006;50.920;3.456;2023-05-19T02:39:25;102387.66;;;8.70;100.00
55113;BME280;41006;50.920;3.456;2023-05-19T02:39:55;102388.69;;;8.79;100.00
55113;BME280;41006;50.920;3.456;2023-05-19T02:40:28;102382.50;;;8.77;100.00
55113;BME280;41006;50.920;3.456;2023-05-19T02:40:58;102378.94;;;8.75;100.00
55113;BME280;41006;50.920;3.456;2023-05-19T02:41:31;102385.91;;;8.73;100.00
55113;BME280;41006;50.920;3.456;2023-05-19T02:42:01;102388.56;;;8.71;100.00
55113;BME280;41006;50.920;3.456;2023-05-19T02:42:32;102384.19;;;8.73;100.00
55113;BME280;41006;50.920;3.456;2023-05-19T02:43:02;102384.97;;;8.69;100.00
55113;BME280;41006;50.920;3.456;2023-05-19T02:43:35;102379.69;;;8.69;100.00
55113;BME280;41006;50.920;3.456;2023-05-19T02:44:08;102387.56;;;8.66;100.00
55113;BME280;41006;50.920;3.456;2023-05-19T02:44:41;102381.47;;;8.70;100.00
55113;BME280;41006;50.920;3.456;2023-05-19T02:45:13;102380.59;;;8.69;100.00
55113;BME280;41006;50.920;3.456;2023-05-19T02:45:44;102384.22;;;8.75;100.00
55113;BME280;41006;50.920;3.456;2023-05-19T02:46:15;102383.34;;;8.76;100.00
55113;BME280;41006;50.920;3.456;2023-05-19T02:46:47;102377.38;;;8.86;100.00
55113;BME280;41006;50.920;3.456;2023-05-19T02:47:21;102382.63;;;8.83;100.00
55113;BME280;41006;50.920;3.456;2023-05-19T02:47:52;102379.84;;;8.77;100.00
55113;BME280;41006;50.920;3.456;2023-05-19T02:48:22;102378.13;;;8.80;100.00
55113;BME280;41006;50.920;3.456;2023-05-19T02:49:00;102378.09;;;8.79;100.00
55113;BME280;41006;50.920;3.456;2023-05-19T02:49:31;102376.38;;;8.79;100.00
55113;BME280;41006;50.920;3.456;2023-05-19T02:50:05;102376.44;;;8.84;100.00
55113;BME280;41006;50.920;3.456;2023-05-19T02:50:35;102379.09;;;8.84;100.00
55113;BME280;41006;50.920;3.456;2023-05-19T02:51:10;102370.34;;;8.88;100.00
55113;BME280;41006;50.920;3.456;2023-05-19T02:51:43;102378.34;;;8.91;100.00
55113;BME280;41006;50.920;3.456;2023-05-19T02:52:18;102371.09;;;8.82;100.00
55113;BME280;41006;50.920;3.456;2023-05-19T02:52:48;102371.09;;;8.79;100.00
55113;BME280;41006;50.920;3.456;2023-05-19T02:53:19;102372.03;;;8.83;100.00
55113;BME280;41006;50.920;3.456;2023-05-19T02:53:49;102374.69;;;8.83;100.00
55113;BME280;41006;50.920;3.456;2023-05-19T02:54:20;102375.59;;;8.85;100.00
55113;BME280;41006;50.920;3.456;2023-05-19T02:54:50;102372.69;;;8.73;100.00
55113;BME280;41006;50.920;3.456;2023-05-19T02:55:22;102371.84;;;8.74;100.00
55113;BME280;41006;50.920;3.456;2023-05-19T02:55:53;102377.97;;;8.73;100.00
55113;BME280;41006;50.920;3.456;2023-05-19T02:56:27;102364.72;;;8.69;100.00
55113;BME280;41006;50.920;3.456;2023-05-19T02:57:00;102367.28;;;8.65;100.00
55113;BME280;41006;50.920;3.456;2023-05-19T02:57:34;102367.31;;;8.66;100.00
55113;BME280;41006;50.920;3.456;2023-05-19T02:58:06;102373.44;;;8.65;100.00
55113;BME280;41006;50.920;3.456;2023-05-19T02:58:37;102373.53;;;8.70;100.00
55113;BME280;41006;50.920;3.456;2023-05-19T02:59:08;102370.03;;;8.69;100.00
55113;BME280;41006;50.920;3.456;2023-05-19T02:59:38;102371.91;;;8.77;100.00
55113;BME280;41006;50.920;3.456;2023-05-19T03:00:11;102369.19;;;8.74;100.00
55113;BME280;41006;50.920;3.456;2023-05-19T03:00:42;102361.44;;;8.83;100.00
55113;BME280;41006;50.920;3.456;2023-05-19T03:01:14;102369.31;;;8.80;100.00
55113;BME280;41006;50.920;3.456;2023-05-19T03:01:45;102371.09;;;8.81;100.00
55113;BME280;41006;50.920;3.456;2023-05-19T03:02:18;102363.13;;;8.78;100.00
55113;BME280;41006;50.920;3.456;2023-05-19T03:02:48;102370.22;;;8.82;100.00
55113;BME280;41006;50.920;3.456;2023-05-19T03:03:19;102367.47;;;8.76;100.00
55113;BME280;41006;50.920;3.456;2023-05-19T03:03:51;102373.69;;;8.78;100.00
55113;BME280;41006;50.920;3.456;2023-05-19T03:04:24;102364.81;;;8.76;100.00
55113;BME280;41006;50.920;3.456;2023-05-19T03:04:57;102370.16;;;8.79;100.00
55113;BME280;41006;50.920;3.456;2023-05-19T03:05:30;102363.97;;;8.77;100.00
55113;BME280;41006;50.920;3.456;2023-05-19T03:06:00;102365.66;;;8.73;100.00
55113;BME280;41006;50.920;3.456;2023-05-19T03:06:33;102369.31;;;8.80;100.00
55113;BME280;41006;50.920;3.456;2023-05-19T03:07:09;102366.72;;;8.83;100.00
55113;BME280;41006;50.920;3.456;2023-05-19T03:07:39;102366.66;;;8.80;100.00
55113;BME280;41006;50.920;3.456;2023-05-19T03:08:12;102363.75;;;8.66;100.00
55113;BME280;41006;50.920;3.456;2023-05-19T03:08:42;102366.53;;;8.72;100.00
55113;BME280;41006;50.920;3.456;2023-05-19T03:09:13;102364.00;;;8.78;100.00
55113;BME280;41006;50.920;3.456;2023-05-19T03:09:45;102366.63;;;8.77;100.00
55113;BME280;41006;50.920;3.456;2023-05-19T03:10:18;102363.13;;;8.81;100.00
55113;BME280;41006;50.920;3.456;2023-05-19T03:10:51;102366.00;;;8.92;100.00